createdAt,value
2019-04-06T00:01:10.848Z,92.00
2019-04-06T00:03:38.523Z,92.30
2019-04-06T00:06:06.010Z,92.50
2019-04-06T00:08:33.648Z,92.70
2019-04-06T00:11:01.158Z,92.90
2019-04-06T00:13:28.646Z,93.10
2019-04-06T00:15:56.223Z,93.30
2019-04-06T00:18:23.673Z,93.40
2019-04-06T00:20:51.379Z,93.40
2019-04-06T00:23:19.002Z,93.40
2019-04-06T00:25:46.711Z,93.50
2019-04-06T00:28:14.217Z,93.60
2019-04-06T00:30:59.016Z,93.40
2019-04-06T00:33:26.896Z,93.10
2019-04-06T00:35:54.506Z,92.60
2019-04-06T00:38:22.128Z,92.50
2019-04-06T00:40:49.710Z,92.80
2019-04-06T00:43:17.845Z,92.90
2019-04-06T00:45:45.412Z,92.90
2019-04-06T00:48:12.965Z,93.00
2019-04-06T00:50:40.694Z,93.00
2019-04-06T00:53:08.148Z,93.10
2019-04-06T00:55:36.924Z,93.10
2019-04-06T00:58:04.506Z,93.20
2019-04-06T01:00:35.207Z,93.00
2019-04-06T01:03:05.656Z,92.90
2019-04-06T01:05:33.118Z,92.80
2019-04-06T01:08:00.557Z,92.70
2019-04-06T01:10:27.993Z,92.60
2019-04-06T01:12:55.711Z,92.60
2019-04-06T01:15:23.321Z,92.40
2019-04-06T01:17:50.805Z,92.20
2019-04-06T01:20:18.305Z,92.00
2019-04-06T01:22:45.774Z,91.80
2019-04-06T01:25:13.298Z,91.40
2019-04-06T01:27:40.828Z,91.30
2019-04-06T01:30:08.444Z,91.30
2019-04-06T01:32:35.957Z,91.20
2019-04-06T01:35:03.539Z,91.20
2019-04-06T01:37:31.020Z,91.00
2019-04-06T01:39:58.529Z,90.90
2019-04-06T01:42:26.392Z,90.90
2019-04-06T01:44:53.871Z,90.90
2019-04-06T01:47:21.838Z,91.00
2019-04-06T01:49:49.368Z,91.00
2019-04-06T01:52:16.953Z,91.20
2019-04-06T01:54:44.605Z,91.30
2019-04-06T01:57:12.069Z,91.70
2019-04-06T01:59:39.570Z,92.50
2019-04-06T02:02:26.899Z,93.00
2019-04-06T02:04:54.360Z,93.60
2019-04-06T02:07:21.933Z,93.90
2019-04-06T02:09:49.486Z,94.20
2019-04-06T02:12:17.033Z,94.30
2019-04-06T02:14:44.537Z,93.90
2019-04-06T02:17:12.078Z,93.50
2019-04-06T02:19:39.642Z,93.00
2019-04-06T02:22:07.115Z,93.00
2019-04-06T02:24:34.601Z,93.20
2019-04-06T02:27:03.115Z,93.30
2019-04-06T02:29:30.638Z,93.70
2019-04-06T02:32:17.030Z,93.90
2019-04-06T02:35:18.983Z,93.90
2019-04-06T02:38:04.666Z,93.90
2019-04-06T02:40:53.220Z,93.70
2019-04-06T02:43:23.487Z,93.50
2019-04-06T02:45:51.055Z,93.70
2019-04-06T02:48:18.581Z,93.90
2019-04-06T02:50:46.090Z,94.10
2019-04-06T02:53:13.637Z,94.00
2019-04-06T02:55:41.186Z,93.60
2019-04-06T02:58:08.698Z,93.60
2019-04-06T03:00:36.294Z,93.60
2019-04-06T03:03:03.821Z,93.60
2019-04-06T03:05:31.305Z,93.80
2019-04-06T03:07:58.809Z,93.80
2019-04-06T03:10:26.716Z,94.00
2019-04-06T03:12:54.207Z,94.40
2019-04-06T03:15:21.662Z,94.50
2019-04-06T03:17:49.143Z,94.40
2019-04-06T03:20:16.611Z,94.20
2019-04-06T03:22:44.212Z,93.60
2019-04-06T03:25:12.085Z,93.20
2019-04-06T03:27:39.879Z,92.50
2019-04-06T03:30:08.188Z,92.20
2019-04-06T03:32:35.922Z,91.90
2019-04-06T03:35:03.671Z,91.60
2019-04-06T03:37:31.726Z,91.70
2019-04-06T03:39:59.284Z,91.60
2019-04-06T03:42:26.845Z,91.50
2019-04-06T03:44:54.564Z,91.60
2019-04-06T03:47:22.148Z,91.60
2019-04-06T03:49:49.660Z,91.70
2019-04-06T03:52:17.400Z,91.60
2019-04-06T03:54:44.958Z,91.60
2019-04-06T03:57:15.813Z,91.50
2019-04-06T03:59:41.984Z,93.20
2019-04-06T04:02:09.605Z,94.20
2019-04-06T04:04:37.350Z,94.10
2019-04-06T04:07:04.854Z,93.30
2019-04-06T04:09:32.314Z,91.80
2019-04-06T04:11:59.801Z,92.20
2019-04-06T04:14:27.480Z,92.90
2019-04-06T04:16:55.046Z,93.20
2019-04-06T04:19:22.613Z,93.80
2019-04-06T04:21:50.166Z,94.60
2019-04-06T04:24:17.729Z,95.40
2019-04-06T04:26:45.296Z,95.80
2019-04-06T04:29:12.939Z,95.90
2019-04-06T04:31:40.557Z,95.40
2019-04-06T04:34:08.060Z,95.10
2019-04-06T04:36:35.663Z,94.90
2019-04-06T04:39:05.913Z,94.80
2019-04-06T04:41:33.481Z,94.60
2019-04-06T04:44:01.266Z,94.30
2019-04-06T04:46:28.827Z,94.60
2019-04-06T04:48:56.391Z,94.30
2019-04-06T04:51:24.974Z,94.60
2019-04-06T04:53:52.746Z,94.40
2019-04-06T04:56:20.280Z,94.70
2019-04-06T04:58:47.969Z,94.50
2019-04-06T05:01:15.529Z,94.40
2019-04-06T05:03:42.987Z,94.20
2019-04-06T05:06:10.439Z,93.90
2019-04-06T05:08:37.912Z,93.80
2019-04-06T05:11:05.572Z,93.60
2019-04-06T05:13:33.130Z,93.50
2019-04-06T05:16:10.586Z,93.20
2019-04-06T05:18:39.056Z,93.10
2019-04-06T05:21:06.606Z,93.40
2019-04-06T05:23:34.100Z,93.50
2019-04-06T05:26:02.620Z,93.40
2019-04-06T05:28:30.559Z,92.70
2019-04-06T05:30:58.110Z,92.60
2019-04-06T05:33:25.837Z,92.60
2019-04-06T05:35:53.397Z,92.40
2019-04-06T05:38:20.892Z,92.30
2019-04-06T05:40:48.410Z,92.10
2019-04-06T05:43:15.885Z,91.30
2019-04-06T05:45:43.380Z,91.00
2019-04-06T05:48:11.012Z,90.60
2019-04-06T05:50:38.553Z,90.70
2019-04-06T05:53:06.465Z,89.90
2019-04-06T05:55:34.023Z,89.20
2019-04-06T05:58:04.412Z,89.20
2019-04-06T06:00:30.997Z,90.10
2019-04-06T06:02:58.585Z,89.40
2019-04-06T06:05:26.215Z,87.90
2019-04-06T06:07:53.888Z,87.10
2019-04-06T06:10:21.385Z,89.00
2019-04-06T06:12:48.851Z,90.80
2019-04-06T06:15:16.406Z,90.30
2019-04-06T06:17:43.975Z,90.30
2019-04-06T06:20:11.661Z,90.20
2019-04-06T06:22:39.504Z,89.90
2019-04-06T06:25:07.462Z,89.60
2019-04-06T06:27:35.133Z,88.60
2019-04-06T06:30:02.625Z,88.80
2019-04-06T06:32:31.766Z,88.20
2019-04-06T06:34:59.260Z,87.10
2019-04-06T06:37:26.740Z,87.10
2019-04-06T06:39:54.485Z,87.30
2019-04-06T06:42:21.937Z,87.50
2019-04-06T06:44:49.397Z,87.50
2019-04-06T06:47:17.031Z,87.30
2019-04-06T06:49:44.622Z,87.10
2019-04-06T06:52:12.197Z,86.00
2019-04-06T06:54:39.730Z,85.50
2019-04-06T06:57:07.278Z,85.10
2019-04-06T06:59:34.854Z,84.50
2019-04-06T07:02:02.358Z,83.60
2019-04-06T07:04:30.138Z,82.50
2019-04-06T07:06:57.644Z,82.70
2019-04-06T07:09:25.327Z,81.00
2019-04-06T07:11:52.835Z,81.00
2019-04-06T07:14:20.409Z,80.20
2019-04-06T07:16:47.899Z,80.00
2019-04-06T07:19:15.397Z,79.50
2019-04-06T07:21:45.858Z,78.70
2019-04-06T07:24:13.622Z,78.90
2019-04-06T07:26:42.151Z,78.20
2019-04-06T07:29:09.661Z,77.40
2019-04-06T07:31:37.570Z,76.70
2019-04-06T07:34:05.358Z,77.30
2019-04-06T07:36:33.357Z,78.20
2019-04-06T07:39:00.850Z,77.80
2019-04-06T07:41:28.517Z,78.00
2019-04-06T07:43:56.204Z,78.20
2019-04-06T07:46:23.854Z,78.00
2019-04-06T07:48:51.498Z,77.80
2019-04-06T07:51:19.271Z,77.40
2019-04-06T07:53:46.782Z,77.30
2019-04-06T07:56:14.774Z,77.10
2019-04-06T07:58:48.617Z,76.50
2019-04-06T08:01:11.691Z,75.20
2019-04-06T08:03:39.374Z,73.70
2019-04-06T08:06:07.299Z,72.80
2019-04-06T08:08:34.902Z,72.80
2019-04-06T08:11:02.643Z,72.00
2019-04-06T08:13:30.178Z,70.70
2019-04-06T08:15:57.634Z,69.80
2019-04-06T08:18:25.137Z,68.30
2019-04-06T08:20:52.640Z,66.60
2019-04-06T08:23:20.177Z,66.30
2019-04-06T08:25:47.638Z,65.90
2019-04-06T08:28:15.140Z,64.80
2019-04-06T08:30:46.380Z,64.60
2019-04-06T08:33:12.264Z,64.20
2019-04-06T08:35:40.089Z,64.80
2019-04-06T08:38:08.120Z,65.10
2019-04-06T08:40:35.664Z,64.80
2019-04-06T08:43:03.150Z,63.70
2019-04-06T08:45:30.766Z,62.70
2019-04-06T08:47:58.293Z,63.50
2019-04-06T08:50:25.793Z,63.80
2019-04-06T08:52:53.360Z,61.80
2019-04-06T08:55:20.788Z,62.20
2019-04-06T08:57:48.254Z,60.90
2019-04-06T09:00:16.102Z,61.60
2019-04-06T09:02:43.598Z,59.80
2019-04-06T09:05:11.196Z,60.10
2019-04-06T09:07:40.790Z,60.90
2019-04-06T09:10:08.733Z,59.60
2019-04-06T09:12:37.066Z,59.50
2019-04-06T09:15:04.941Z,60.10
2019-04-06T09:17:32.553Z,59.30
2019-04-06T09:20:00.235Z,58.90
2019-04-06T09:22:27.855Z,58.90
2019-04-06T09:24:55.381Z,56.30
2019-04-06T09:27:22.901Z,53.70
2019-04-06T09:29:50.335Z,54.50
2019-04-06T09:32:18.043Z,54.90
2019-04-06T09:34:45.543Z,56.10
2019-04-06T09:37:13.214Z,54.90
2019-04-06T09:39:41.136Z,54.50
2019-04-06T09:42:08.625Z,54.50
2019-04-06T09:44:57.148Z,54.20
2019-04-06T09:47:53.229Z,52.30
2019-04-06T09:50:49.165Z,51.40
2019-04-06T09:53:34.633Z,49.30
2019-04-06T09:56:12.064Z,46.70
2019-04-06T09:58:59.029Z,43.30
2019-04-06T10:01:38.886Z,40.10
2019-04-06T10:04:16.806Z,34.80
2019-04-06T10:07:12.581Z,34.10
2019-04-06T10:09:58.386Z,30.70
2019-04-06T10:12:54.723Z,31.50
2019-04-06T10:15:32.239Z,27.90
2019-04-06T10:18:17.959Z,23.70
2019-04-06T10:20:54.889Z,20.10
2019-04-06T10:23:50.966Z,17.50
2019-04-06T10:26:31.037Z,17.30
2019-04-06T10:29:20.863Z,19.10
2019-04-06T10:32:13.902Z,22.30
2019-04-06T10:35:01.919Z,23.80
2019-04-06T10:37:47.299Z,26.90
2019-04-06T10:40:33.729Z,29.60
2019-04-06T10:43:24.082Z,34.40
2019-04-06T10:46:11.061Z,39.10
2019-04-06T10:49:01.154Z,41.20
2019-04-06T10:51:53.981Z,44.30
2019-04-06T10:54:43.708Z,47.60
2019-04-06T10:57:31.939Z,47.20
2019-04-06T11:00:20.421Z,47.60
2019-04-06T11:03:02.366Z,48.10
2019-04-06T11:05:39.801Z,47.90
2019-04-06T11:08:29.626Z,44.00
2019-04-06T11:11:20.593Z,41.10
2019-04-06T11:14:15.450Z,41.10
2019-04-06T11:17:14.601Z,43.80
2019-04-06T11:19:48.221Z,44.30
2019-04-06T11:22:41.433Z,48.40
2019-04-06T11:25:34.553Z,47.50
2019-04-06T11:28:10.827Z,43.60
2019-04-06T11:31:06.829Z,36.50
2019-04-06T11:34:02.821Z,32.80
2019-04-06T11:36:39.119Z,36.80
2019-04-06T11:39:15.174Z,39.10
2019-04-06T11:41:56.779Z,40.00
2019-04-06T11:44:33.593Z,41.80
2019-04-06T11:47:26.487Z,45.50
2019-04-06T11:50:09.802Z,47.00
2019-04-06T11:52:55.399Z,48.10
2019-04-06T11:55:36.283Z,48.70
2019-04-06T11:58:12.928Z,48.80
2019-04-06T12:00:49.466Z,49.40
2019-04-06T12:03:26.086Z,49.30
2019-04-06T12:06:01.191Z,50.00
2019-04-06T12:08:37.064Z,48.80
2019-04-06T12:11:36.102Z,49.40
2019-04-06T12:14:25.869Z,49.90
2019-04-06T12:17:11.274Z,48.70
2019-04-06T12:19:57.634Z,49.70
2019-04-06T12:22:35.906Z,50.30
2019-04-06T12:25:20.548Z,50.50
2019-04-06T12:28:06.782Z,51.60
2019-04-06T12:30:53.854Z,50.20
2019-04-06T12:33:47.140Z,50.00
2019-04-06T12:36:28.779Z,49.90
2019-04-06T12:39:18.028Z,50.00
2019-04-06T12:42:23.153Z,49.40
2019-04-06T12:44:58.621Z,50.50
2019-04-06T12:47:35.574Z,49.10
2019-04-06T12:50:21.559Z,49.00
2019-04-06T12:53:06.395Z,47.90
2019-04-06T12:55:49.957Z,44.60
2019-04-06T12:58:51.906Z,41.80
2019-04-06T13:01:38.968Z,40.10
2019-04-06T13:04:38.167Z,40.30
2019-04-06T13:07:31.419Z,39.50
2019-04-06T13:10:16.078Z,41.10
2019-04-06T13:13:05.942Z,41.70
2019-04-06T13:15:50.792Z,42.70
2019-04-06T13:18:25.653Z,40.80
2019-04-06T13:21:09.419Z,39.70
2019-04-06T13:24:02.485Z,41.20
2019-04-06T13:26:55.381Z,41.50
2019-04-06T13:29:45.473Z,40.00
2019-04-06T13:32:24.895Z,36.80
2019-04-06T13:35:15.098Z,33.40
2019-04-06T13:38:14.030Z,30.40
2019-04-06T13:41:11.137Z,30.70
2019-04-06T13:44:01.305Z,28.90
2019-04-06T13:46:48.027Z,28.60
2019-04-06T13:49:35.309Z,28.10
2019-04-06T13:52:23.191Z,29.40
2019-04-06T13:55:08.973Z,29.70
2019-04-06T13:57:59.160Z,30.70
2019-04-06T14:00:46.574Z,30.90
2019-04-06T14:03:32.436Z,29.40
2019-04-06T14:06:25.760Z,28.70
2019-04-06T14:09:15.544Z,27.40
2019-04-06T14:12:02.937Z,25.50
2019-04-06T14:14:50.604Z,24.20
2019-04-06T14:17:43.444Z,24.40
2019-04-06T14:20:36.297Z,23.00
2019-04-06T14:23:13.699Z,21.90
2019-04-06T14:26:01.062Z,21.60
2019-04-06T14:28:48.370Z,22.10
2019-04-06T14:31:30.630Z,22.90
2019-04-06T14:34:16.321Z,23.00
2019-04-06T14:37:01.881Z,24.60
2019-04-06T14:39:51.699Z,25.20
2019-04-06T14:42:33.993Z,26.70
2019-04-06T14:45:29.961Z,27.20
2019-04-06T14:48:13.283Z,28.90
2019-04-06T14:51:05.725Z,30.10
2019-04-06T14:53:45.315Z,29.40
2019-04-06T14:56:38.762Z,29.00
2019-04-06T14:59:26.711Z,29.30
2019-04-06T15:02:19.386Z,30.40
2019-04-06T15:05:00.177Z,28.90
2019-04-06T15:07:43.017Z,27.80
2019-04-06T15:10:30.129Z,29.20
2019-04-06T15:13:17.069Z,29.10
2019-04-06T15:15:52.716Z,29.10
2019-04-06T15:18:45.824Z,31.20
2019-04-06T15:21:44.953Z,30.10
2019-04-06T15:24:31.986Z,30.40
2019-04-06T15:27:07.497Z,32.50
2019-04-06T15:29:49.824Z,32.40
2019-04-06T15:32:35.702Z,30.20
2019-04-06T15:35:19.103Z,29.20
2019-04-06T15:37:58.081Z,31.90
2019-04-06T15:40:57.146Z,30.70
2019-04-06T15:43:41.073Z,31.50
2019-04-06T15:46:34.427Z,29.50
2019-04-06T15:49:30.537Z,29.60
2019-04-06T15:52:26.581Z,31.20
2019-04-06T15:54:59.024Z,31.80
2019-04-06T15:57:37.251Z,31.90
2019-04-06T16:00:21.864Z,31.50
2019-04-06T16:03:08.893Z,31.80
2019-04-06T16:05:46.290Z,31.50
2019-04-06T16:08:37.033Z,31.00
2019-04-06T16:11:29.165Z,33.00
2019-04-06T16:14:22.758Z,32.50
2019-04-06T16:16:59.492Z,33.30
2019-04-06T16:19:52.377Z,34.40
2019-04-06T16:22:39.517Z,36.30
2019-04-06T16:25:17.267Z,36.80
2019-04-06T16:28:03.492Z,36.30
2019-04-06T16:30:42.738Z,36.80
2019-04-06T16:33:17.029Z,36.90
2019-04-06T16:36:21.910Z,39.40
2019-04-06T16:39:14.905Z,40.80
2019-04-06T16:42:14.373Z,41.10
2019-04-06T16:44:48.415Z,41.50
2019-04-06T16:47:42.354Z,42.60
2019-04-06T16:50:20.625Z,43.20
2019-04-06T16:53:06.333Z,43.80
2019-04-06T16:55:56.641Z,43.60
2019-04-06T16:58:43.720Z,44.30
2019-04-06T17:01:28.726Z,44.10
2019-04-06T17:04:15.782Z,44.10
2019-04-06T17:07:11.647Z,44.70
2019-04-06T17:09:54.994Z,45.30
2019-04-06T17:12:40.789Z,45.90
2019-04-06T17:15:30.673Z,46.80
2019-04-06T17:18:16.344Z,47.00
2019-04-06T17:20:58.939Z,47.20
2019-04-06T17:23:34.141Z,47.50
2019-04-06T17:26:10.462Z,48.50
2019-04-06T17:28:54.373Z,49.60
2019-04-06T17:31:33.119Z,49.60
2019-04-06T17:34:25.968Z,50.80
2019-04-06T17:36:59.896Z,51.40
2019-04-06T17:39:52.749Z,51.60
2019-04-06T17:42:44.721Z,51.40
2019-04-06T17:45:30.366Z,50.20
2019-04-06T17:48:29.550Z,49.30
2019-04-06T17:51:31.505Z,49.40
2019-04-06T17:54:17.057Z,50.20
2019-04-06T17:57:06.944Z,51.70
2019-04-06T17:59:54.304Z,52.80
2019-04-06T18:02:48.364Z,52.90
2019-04-06T18:05:28.264Z,53.20
2019-04-06T18:08:15.405Z,53.90
2019-04-06T18:11:17.427Z,54.50
2019-04-06T18:13:51.328Z,56.30
2019-04-06T18:16:21.228Z,57.80
2019-04-06T18:18:48.714Z,59.00
2019-04-06T18:21:16.481Z,59.50
2019-04-06T18:23:44.093Z,59.80
2019-04-06T18:26:12.086Z,60.30
2019-04-06T18:28:39.707Z,60.50
2019-04-06T18:31:16.863Z,61.20
2019-04-06T18:33:44.570Z,61.80
2019-04-06T18:36:12.404Z,61.40
2019-04-06T18:38:43.318Z,61.80
2019-04-06T18:41:11.355Z,62.30
2019-04-06T18:43:39.857Z,63.70
2019-04-06T18:46:08.947Z,64.60
2019-04-06T18:48:37.223Z,65.00
2019-04-06T18:51:04.758Z,65.70
2019-04-06T18:53:32.217Z,66.30
2019-04-06T18:55:59.773Z,66.80
2019-04-06T18:58:27.781Z,66.80
2019-04-06T19:00:55.345Z,66.40
2019-04-06T19:03:23.264Z,66.40
2019-04-06T19:05:51.268Z,66.80
2019-04-06T19:08:18.958Z,67.20
2019-04-06T19:10:46.577Z,67.70
2019-04-06T19:13:14.691Z,68.50
2019-04-06T19:15:42.652Z,69.10
2019-04-06T19:18:10.696Z,69.60
2019-04-06T19:20:38.199Z,70.40
2019-04-06T19:23:05.732Z,70.70
2019-04-06T19:25:33.403Z,71.50
2019-04-06T19:28:01.022Z,72.60
2019-04-06T19:30:28.722Z,72.60
2019-04-06T19:32:56.556Z,72.80
2019-04-06T19:35:24.590Z,73.20
2019-04-06T19:37:52.268Z,73.30
2019-04-06T19:40:19.835Z,73.30
2019-04-06T19:42:47.374Z,73.20
2019-04-06T19:45:15.864Z,73.30
2019-04-06T19:47:43.643Z,73.50
2019-04-06T19:50:11.897Z,73.50
2019-04-06T19:52:39.527Z,73.90
2019-04-06T19:55:07.473Z,74.50
2019-04-06T19:57:35.222Z,74.50
2019-04-06T20:00:03.730Z,74.60
2019-04-06T20:02:33.451Z,74.60
2019-04-06T20:05:00.946Z,75.00
2019-04-06T20:07:28.712Z,75.40
2019-04-06T20:09:56.771Z,75.40
2019-04-06T20:12:24.840Z,75.40
2019-04-06T20:14:52.913Z,75.60
2019-04-06T20:17:22.440Z,76.50
2019-04-06T20:19:52.008Z,77.30
2019-04-06T20:22:20.236Z,77.80
2019-04-06T20:24:48.358Z,78.40
2019-04-06T20:27:17.402Z,78.40
2019-04-06T20:29:45.295Z,78.70
2019-04-06T20:32:13.317Z,78.70
2019-04-06T20:34:41.306Z,78.40
2019-04-06T20:37:08.857Z,79.70
2019-04-06T20:39:36.337Z,80.40
2019-04-06T20:42:03.991Z,80.80
2019-04-06T20:44:31.625Z,81.20
2019-04-06T20:46:59.468Z,81.20
2019-04-06T20:49:27.384Z,81.40
2019-04-06T20:51:55.252Z,81.50
2019-04-06T20:54:24.537Z,81.90
2019-04-06T20:56:57.116Z,82.70
2019-04-06T20:59:21.909Z,83.00
2019-04-06T21:01:49.437Z,83.20
2019-04-06T21:04:17.076Z,83.20
2019-04-06T21:06:44.817Z,83.60
2019-04-06T21:09:14.033Z,84.00
2019-04-06T21:11:41.772Z,84.50
2019-04-06T21:14:09.325Z,84.90
2019-04-06T21:16:36.926Z,85.30
2019-04-06T21:19:04.801Z,85.50
2019-04-06T21:21:34.694Z,85.30
2019-04-06T21:24:05.309Z,85.50
2019-04-06T21:26:33.509Z,85.50
2019-04-06T21:29:01.611Z,85.50
2019-04-06T21:31:29.343Z,85.50
2019-04-06T21:33:57.151Z,85.60
2019-04-06T21:36:24.753Z,85.60
2019-04-06T21:38:52.232Z,85.60
2019-04-06T21:41:19.938Z,85.80
2019-04-06T21:43:47.705Z,86.40
2019-04-06T21:46:15.752Z,86.60
2019-04-06T21:48:43.555Z,86.60
2019-04-06T21:51:11.373Z,86.40
2019-04-06T21:53:38.872Z,86.00
2019-04-06T21:56:08.067Z,86.00
2019-04-06T21:58:35.865Z,86.00
2019-04-06T22:01:04.061Z,85.80
2019-04-06T22:03:31.732Z,85.50
2019-04-06T22:05:59.282Z,85.60
2019-04-06T22:08:27.321Z,85.50
2019-04-06T22:10:55.049Z,85.30
2019-04-06T22:13:22.572Z,85.10
2019-04-06T22:15:50.608Z,85.50
2019-04-06T22:18:20.378Z,86.60
2019-04-06T22:20:48.056Z,88.40
2019-04-06T22:23:15.607Z,89.40
2019-04-06T22:25:43.574Z,89.40
2019-04-06T22:28:11.447Z,89.20
2019-04-06T22:30:40.381Z,89.20
2019-04-06T22:33:08.257Z,89.00
2019-04-06T22:35:36.249Z,88.60
2019-04-06T22:38:04.476Z,87.90
2019-04-06T22:40:32.518Z,87.70
2019-04-06T22:43:01.248Z,87.90
2019-04-06T22:45:29.855Z,87.70
2019-04-06T22:47:57.546Z,87.90
2019-04-06T22:50:26.084Z,87.90
2019-04-06T22:52:53.601Z,87.90
2019-04-06T22:55:21.366Z,88.10
2019-04-06T22:57:48.947Z,88.60
2019-04-06T23:00:28.144Z,88.80
2019-04-06T23:03:24.288Z,88.60
2019-04-06T23:05:54.996Z,88.40
2019-04-06T23:08:22.717Z,88.40
2019-04-06T23:10:50.456Z,88.60
2019-04-06T23:13:18.533Z,90.10
2019-04-06T23:15:47.847Z,90.40
2019-04-06T23:18:15.437Z,90.10
2019-04-06T23:20:43.062Z,89.60
2019-04-06T23:23:10.593Z,89.00
2019-04-06T23:25:38.066Z,88.80
2019-04-06T23:28:05.858Z,89.70
2019-04-06T23:30:33.954Z,90.20
2019-04-06T23:33:01.692Z,90.60
2019-04-06T23:35:29.931Z,90.90
2019-04-06T23:37:57.505Z,90.70
2019-04-06T23:40:25.057Z,90.90
2019-04-06T23:42:52.675Z,90.70
2019-04-06T23:45:21.865Z,90.50
2019-04-06T23:47:49.409Z,90.20
2019-04-06T23:50:17.872Z,90.10
2019-04-06T23:52:45.378Z,90.40
2019-04-06T23:55:13.445Z,90.50
2019-04-06T23:57:40.945Z,90.30
